sensor_id;sensor_type;location;lat;lon;timestamp;P1;durP1;ratioP1;P2;durP2;ratioP2
42134;SDS011;28312;43.460;11.810;2022-10-22T00:00:08;2.00;;;1.20;;
42134;SDS011;28312;43.460;11.810;2022-10-22T00:04:13;3.87;;;1.67;;
42134;SDS011;28312;43.460;11.810;2022-10-22T00:08:16;3.67;;;1.80;;
42134;SDS011;28312;43.460;11.810;2022-10-22T00:12:20;3.05;;;1.90;;
42134;SDS011;28312;43.460;11.810;2022-10-22T00:16:23;2.15;;;1.25;;
42134;SDS011;28312;43.460;11.810;2022-10-22T00:20:27;3.40;;;1.65;;
42134;SDS011;28312;43.460;11.810;2022-10-22T00:24:31;2.88;;;1.63;;
42134;SDS011;28312;43.460;11.810;2022-10-22T00:28:35;4.13;;;1.60;;
42134;SDS011;28312;43.460;11.810;2022-10-22T00:32:40;2.95;;;1.67;;
42134;SDS011;28312;43.460;11.810;2022-10-22T00:36:43;2.28;;;1.35;;
42134;SDS011;28312;43.460;11.810;2022-10-22T00:40:47;3.08;;;1.48;;
42134;SDS011;28312;43.460;11.810;2022-10-22T00:49:13;5.95;;;3.10;;
42134;SDS011;28312;43.460;11.810;2022-10-22T00:53:21;3.80;;;2.65;;
42134;SDS011;28312;43.460;11.810;2022-10-22T00:57:27;2.45;;;1.45;;
42134;SDS011;28312;43.460;11.810;2022-10-22T01:01:31;4.20;;;2.38;;
42134;SDS011;28312;43.460;11.810;2022-10-22T01:05:40;1.90;;;1.20;;
42134;SDS011;28312;43.460;11.810;2022-10-22T01:14:17;5.00;;;2.28;;
42134;SDS011;28312;43.460;11.810;2022-10-22T01:18:30;2.13;;;1.40;;
42134;SDS011;28312;43.460;11.810;2022-10-22T01:23:01;3.72;;;1.98;;
42134;SDS011;28312;43.460;11.810;2022-10-22T01:32:14;2.50;;;1.38;;
42134;SDS011;28312;43.460;11.810;2022-10-22T01:36:21;3.73;;;2.83;;
42134;SDS011;28312;43.460;11.810;2022-10-22T01:40:25;5.05;;;1.60;;
42134;SDS011;28312;43.460;11.810;2022-10-22T01:44:32;2.45;;;1.45;;
42134;SDS011;28312;43.460;11.810;2022-10-22T01:53:03;5.63;;;2.88;;
42134;SDS011;28312;43.460;11.810;2022-10-22T01:57:35;5.05;;;3.15;;
42134;SDS011;28312;43.460;11.810;2022-10-22T02:05:48;2.83;;;2.05;;
42134;SDS011;28312;43.460;11.810;2022-10-22T02:09:59;2.45;;;1.48;;
42134;SDS011;28312;43.460;11.810;2022-10-22T02:14:04;5.70;;;1.88;;
42134;SDS011;28312;43.460;11.810;2022-10-22T02:18:09;1.73;;;1.13;;
42134;SDS011;28312;43.460;11.810;2022-10-22T02:22:14;3.70;;;2.03;;
42134;SDS011;28312;43.460;11.810;2022-10-22T02:26:32;2.42;;;1.65;;
42134;SDS011;28312;43.460;11.810;2022-10-22T02:30:41;2.60;;;1.70;;
42134;SDS011;28312;43.460;11.810;2022-10-22T02:34:51;2.92;;;1.77;;
42134;SDS011;28312;43.460;11.810;2022-10-22T02:38:56;3.03;;;1.85;;
42134;SDS011;28312;43.460;11.810;2022-10-22T02:43:02;2.63;;;1.58;;
42134;SDS011;28312;43.460;11.810;2022-10-22T02:47:07;4.88;;;2.10;;
42134;SDS011;28312;43.460;11.810;2022-10-22T02:51:10;3.10;;;2.10;;
42134;SDS011;28312;43.460;11.810;2022-10-22T02:55:14;3.08;;;1.60;;
42134;SDS011;28312;43.460;11.810;2022-10-22T02:59:18;2.40;;;1.50;;
42134;SDS011;28312;43.460;11.810;2022-10-22T03:03:22;2.13;;;1.38;;
42134;SDS011;28312;43.460;11.810;2022-10-22T03:07:26;2.45;;;1.33;;
42134;SDS011;28312;43.460;11.810;2022-10-22T03:11:29;2.35;;;1.23;;
42134;SDS011;28312;43.460;11.810;2022-10-22T03:15:33;3.10;;;1.50;;
42134;SDS011;28312;43.460;11.810;2022-10-22T03:19:36;2.63;;;1.70;;
42134;SDS011;28312;43.460;11.810;2022-10-22T03:23:40;9.10;;;2.72;;
42134;SDS011;28312;43.460;11.810;2022-10-22T03:27:45;2.85;;;1.63;;
42134;SDS011;28312;43.460;11.810;2022-10-22T03:31:51;2.77;;;1.70;;
42134;SDS011;28312;43.460;11.810;2022-10-22T03:35:55;3.45;;;1.88;;
42134;SDS011;28312;43.460;11.810;2022-10-22T03:39:59;2.95;;;1.75;;
42134;SDS011;28312;43.460;11.810;2022-10-22T03:44:03;4.15;;;2.20;;
42134;SDS011;28312;43.460;11.810;2022-10-22T03:48:07;3.25;;;1.75;;
42134;SDS011;28312;43.460;11.810;2022-10-22T03:52:12;2.08;;;1.27;;
42134;SDS011;28312;43.460;11.810;2022-10-22T03:56:16;5.28;;;3.10;;
42134;SDS011;28312;43.460;11.810;2022-10-22T04:00:20;2.58;;;1.52;;
42134;SDS011;28312;43.460;11.810;2022-10-22T04:04:23;2.33;;;1.52;;
42134;SDS011;28312;43.460;11.810;2022-10-22T04:08:27;1.85;;;1.13;;
42134;SDS011;28312;43.460;11.810;2022-10-22T04:12:30;4.95;;;2.30;;
42134;SDS011;28312;43.460;11.810;2022-10-22T04:16:34;2.75;;;1.70;;
42134;SDS011;28312;43.460;11.810;2022-10-22T04:20:38;2.92;;;1.95;;
42134;SDS011;28312;43.460;11.810;2022-10-22T04:24:43;2.07;;;1.20;;
42134;SDS011;28312;43.460;11.810;2022-10-22T04:28:47;3.30;;;1.60;;
42134;SDS011;28312;43.460;11.810;2022-10-22T04:32:52;3.65;;;2.78;;
42134;SDS011;28312;43.460;11.810;2022-10-22T04:36:56;2.83;;;2.00;;
42134;SDS011;28312;43.460;11.810;2022-10-22T04:41:12;2.25;;;1.42;;
42134;SDS011;28312;43.460;11.810;2022-10-22T04:45:22;4.97;;;1.65;;
42134;SDS011;28312;43.460;11.810;2022-10-22T04:49:26;1.90;;;1.15;;
42134;SDS011;28312;43.460;11.810;2022-10-22T04:53:30;2.50;;;1.50;;
42134;SDS011;28312;43.460;11.810;2022-10-22T04:57:33;2.78;;;1.48;;
42134;SDS011;28312;43.460;11.810;2022-10-22T05:01:39;3.33;;;1.65;;
42134;SDS011;28312;43.460;11.810;2022-10-22T05:05:44;2.28;;;1.40;;
42134;SDS011;28312;43.460;11.810;2022-10-22T05:09:48;2.22;;;1.23;;
42134;SDS011;28312;43.460;11.810;2022-10-22T05:13:52;3.15;;;1.80;;
42134;SDS011;28312;43.460;11.810;2022-10-22T05:17:58;2.53;;;1.60;;
42134;SDS011;28312;43.460;11.810;2022-10-22T05:22:02;5.78;;;2.67;;
42134;SDS011;28312;43.460;11.810;2022-10-22T05:26:07;4.15;;;2.90;;
42134;SDS011;28312;43.460;11.810;2022-10-22T05:30:12;4.97;;;3.53;;
42134;SDS011;28312;43.460;11.810;2022-10-22T05:34:15;6.50;;;4.10;;
42134;SDS011;28312;43.460;11.810;2022-10-22T05:38:19;3.67;;;1.95;;
42134;SDS011;28312;43.460;11.810;2022-10-22T05:42:23;3.22;;;2.08;;
42134;SDS011;28312;43.460;11.810;2022-10-22T05:46:31;6.13;;;3.85;;
42134;SDS011;28312;43.460;11.810;2022-10-22T05:50:39;3.22;;;2.25;;
42134;SDS011;28312;43.460;11.810;2022-10-22T05:54:43;2.42;;;1.73;;
42134;SDS011;28312;43.460;11.810;2022-10-22T05:58:47;4.78;;;3.15;;
42134;SDS011;28312;43.460;11.810;2022-10-22T06:02:50;2.20;;;1.50;;
42134;SDS011;28312;43.460;11.810;2022-10-22T06:06:54;10.48;;;3.95;;
42134;SDS011;28312;43.460;11.810;2022-10-22T06:10:57;2.63;;;1.83;;
42134;SDS011;28312;43.460;11.810;2022-10-22T06:15:02;5.32;;;3.47;;
42134;SDS011;28312;43.460;11.810;2022-10-22T06:19:06;3.63;;;1.92;;
42134;SDS011;28312;43.460;11.810;2022-10-22T06:23:11;3.13;;;1.48;;
42134;SDS011;28312;43.460;11.810;2022-10-22T06:27:14;3.53;;;2.38;;
42134;SDS011;28312;43.460;11.810;2022-10-22T06:31:18;14.30;;;8.27;;
42134;SDS011;28312;43.460;11.810;2022-10-22T06:35:26;9.77;;;4.60;;
42134;SDS011;28312;43.460;11.810;2022-10-22T06:39:31;5.88;;;3.67;;
42134;SDS011;28312;43.460;11.810;2022-10-22T06:43:34;3.97;;;2.17;;
42134;SDS011;28312;43.460;11.810;2022-10-22T06:47:38;4.20;;;1.98;;
42134;SDS011;28312;43.460;11.810;2022-10-22T06:51:42;2.95;;;1.70;;
42134;SDS011;28312;43.460;11.810;2022-10-22T06:55:45;3.28;;;1.70;;
42134;SDS011;28312;43.460;11.810;2022-10-22T06:59:49;5.05;;;2.95;;
42134;SDS011;28312;43.460;11.810;2022-10-22T07:03:53;6.03;;;3.15;;
42134;SDS011;28312;43.460;11.810;2022-10-22T07:07:57;3.90;;;2.53;;
42134;SDS011;28312;43.460;11.810;2022-10-22T07:12:00;4.40;;;2.40;;
42134;SDS011;28312;43.460;11.810;2022-10-22T07:16:04;4.65;;;1.75;;
42134;SDS011;28312;43.460;11.810;2022-10-22T07:20:08;3.05;;;1.92;;
42134;SDS011;28312;43.460;11.810;2022-10-22T07:24:12;4.32;;;1.70;;
42134;SDS011;28312;43.460;11.810;2022-10-22T07:28:16;3.17;;;1.60;;
42134;SDS011;28312;43.460;11.810;2022-10-22T07:32:19;3.65;;;1.95;;
42134;SDS011;28312;43.460;11.810;2022-10-22T07:36:25;4.07;;;1.40;;
42134;SDS011;28312;43.460;11.810;2022-10-22T07:40:28;1.85;;;1.27;;
42134;SDS011;28312;43.460;11.810;2022-10-22T07:44:32;4.65;;;2.58;;
42134;SDS011;28312;43.460;11.810;2022-10-22T07:48:35;2.10;;;1.30;;
42134;SDS011;28312;43.460;11.810;2022-10-22T07:52:39;3.20;;;1.90;;
42134;SDS011;28312;43.460;11.810;2022-10-22T07:56:43;1.77;;;1.27;;
42134;SDS011;28312;43.460;11.810;2022-10-22T08:00:47;1.67;;;1.08;;
42134;SDS011;28312;43.460;11.810;2022-10-22T08:04:52;2.17;;;0.88;;
42134;SDS011;28312;43.460;11.810;2022-10-22T08:08:58;2.55;;;1.58;;
42134;SDS011;28312;43.460;11.810;2022-10-22T08:13:03;1.90;;;1.20;;
42134;SDS011;28312;43.460;11.810;2022-10-22T08:17:06;3.03;;;1.50;;
42134;SDS011;28312;43.460;11.810;2022-10-22T08:21:11;3.60;;;1.75;;
42134;SDS011;28312;43.460;11.810;2022-10-22T08:25:15;5.85;;;2.42;;
42134;SDS011;28312;43.460;11.810;2022-10-22T08:29:20;6.72;;;2.38;;
42134;SDS011;28312;43.460;11.810;2022-10-22T08:33:25;11.40;;;2.90;;
42134;SDS011;28312;43.460;11.810;2022-10-22T08:37:28;10.75;;;2.45;;
42134;SDS011;28312;43.460;11.810;2022-10-22T08:41:33;6.55;;;2.40;;
42134;SDS011;28312;43.460;11.810;2022-10-22T08:45:49;5.85;;;2.85;;
42134;SDS011;28312;43.460;11.810;2022-10-22T08:50:00;5.38;;;2.63;;
42134;SDS011;28312;43.460;11.810;2022-10-22T08:58:37;7.68;;;2.78;;
42134;SDS011;28312;43.460;11.810;2022-10-22T09:02:55;4.72;;;2.25;;
42134;SDS011;28312;43.460;11.810;2022-10-22T09:07:01;3.65;;;2.25;;
42134;SDS011;28312;43.460;11.810;2022-10-22T09:11:06;5.85;;;2.20;;
42134;SDS011;28312;43.460;11.810;2022-10-22T09:15:17;4.03;;;2.45;;
42134;SDS011;28312;43.460;11.810;2022-10-22T09:19:25;4.32;;;2.78;;
42134;SDS011;28312;43.460;11.810;2022-10-22T09:23:54;3.95;;;2.28;;
42134;SDS011;28312;43.460;11.810;2022-10-22T09:28:07;4.97;;;2.40;;
42134;SDS011;28312;43.460;11.810;2022-10-22T09:32:11;3.60;;;2.30;;
42134;SDS011;28312;43.460;11.810;2022-10-22T09:36:17;11.63;;;3.10;;
42134;SDS011;28312;43.460;11.810;2022-10-22T09:40:23;3.80;;;2.13;;
42134;SDS011;28312;43.460;11.810;2022-10-22T09:44:27;4.45;;;2.55;;
42134;SDS011;28312;43.460;11.810;2022-10-22T09:48:35;6.50;;;2.75;;
42134;SDS011;28312;43.460;11.810;2022-10-22T09:52:42;5.20;;;3.13;;
42134;SDS011;28312;43.460;11.810;2022-10-22T09:56:54;7.15;;;3.08;;
42134;SDS011;28312;43.460;11.810;2022-10-22T10:01:00;11.00;;;2.83;;
42134;SDS011;28312;43.460;11.810;2022-10-22T10:05:05;9.35;;;3.33;;
42134;SDS011;28312;43.460;11.810;2022-10-22T10:09:19;3.65;;;2.58;;
42134;SDS011;28312;43.460;11.810;2022-10-22T10:13:29;11.13;;;3.45;;
42134;SDS011;28312;43.460;11.810;2022-10-22T10:26:35;8.68;;;2.35;;
42134;SDS011;28312;43.460;11.810;2022-10-22T10:39:53;4.78;;;2.90;;
42134;SDS011;28312;43.460;11.810;2022-10-22T10:48:26;4.80;;;2.53;;
42134;SDS011;28312;43.460;11.810;2022-10-22T10:52:43;10.73;;;3.97;;
42134;SDS011;28312;43.460;11.810;2022-10-22T10:57:10;7.53;;;3.15;;
42134;SDS011;28312;43.460;11.810;2022-10-22T11:05:33;5.43;;;3.72;;
42134;SDS011;28312;43.460;11.810;2022-10-22T11:10:18;6.82;;;3.15;;
42134;SDS011;28312;43.460;11.810;2022-10-22T11:14:32;6.93;;;3.08;;
42134;SDS011;28312;43.460;11.810;2022-10-22T11:19:10;4.97;;;3.28;;
42134;SDS011;28312;43.460;11.810;2022-10-22T11:23:43;4.55;;;2.67;;
42134;SDS011;28312;43.460;11.810;2022-10-22T11:27:55;6.13;;;2.80;;
42134;SDS011;28312;43.460;11.810;2022-10-22T11:32:12;4.05;;;2.17;;
42134;SDS011;28312;43.460;11.810;2022-10-22T11:36:21;8.63;;;3.55;;
42134;SDS011;28312;43.460;11.810;2022-10-22T11:40:36;5.15;;;2.95;;
42134;SDS011;28312;43.460;11.810;2022-10-22T11:45:30;7.50;;;2.80;;
42134;SDS011;28312;43.460;11.810;2022-10-22T11:49:18;6.35;;;2.85;;
42134;SDS011;28312;43.460;11.810;2022-10-22T11:53:35;6.97;;;3.13;;
42134;SDS011;28312;43.460;11.810;2022-10-22T11:57:40;6.15;;;2.97;;
42134;SDS011;28312;43.460;11.810;2022-10-22T12:01:44;5.18;;;2.58;;
42134;SDS011;28312;43.460;11.810;2022-10-22T12:10:18;12.77;;;2.63;;
42134;SDS011;28312;43.460;11.810;2022-10-22T12:14:24;5.15;;;3.05;;
42134;SDS011;28312;43.460;11.810;2022-10-22T12:18:39;8.70;;;4.20;;
42134;SDS011;28312;43.460;11.810;2022-10-22T12:22:44;13.55;;;6.95;;
42134;SDS011;28312;43.460;11.810;2022-10-22T12:26:48;8.63;;;3.95;;
42134;SDS011;28312;43.460;11.810;2022-10-22T12:30:54;10.55;;;5.38;;
42134;SDS011;28312;43.460;11.810;2022-10-22T12:35:04;16.20;;;6.63;;
42134;SDS011;28312;43.460;11.810;2022-10-22T12:39:15;11.98;;;7.07;;
42134;SDS011;28312;43.460;11.810;2022-10-22T12:43:24;17.73;;;8.85;;
42134;SDS011;28312;43.460;11.810;2022-10-22T12:47:29;14.82;;;7.07;;
42134;SDS011;28312;43.460;11.810;2022-10-22T12:51:33;12.82;;;7.13;;
42134;SDS011;28312;43.460;11.810;2022-10-22T12:55:36;12.82;;;4.82;;
42134;SDS011;28312;43.460;11.810;2022-10-22T12:59:41;7.95;;;4.40;;
42134;SDS011;28312;43.460;11.810;2022-10-22T13:04:02;6.95;;;3.72;;
42134;SDS011;28312;43.460;11.810;2022-10-22T13:08:15;9.27;;;4.03;;
42134;SDS011;28312;43.460;11.810;2022-10-22T13:12:26;8.07;;;3.90;;
42134;SDS011;28312;43.460;11.810;2022-10-22T13:16:36;5.38;;;2.58;;
42134;SDS011;28312;43.460;11.810;2022-10-22T13:20:49;4.63;;;2.72;;
42134;SDS011;28312;43.460;11.810;2022-10-22T13:29:21;6.68;;;2.40;;
42134;SDS011;28312;43.460;11.810;2022-10-22T13:33:31;6.40;;;2.97;;
42134;SDS011;28312;43.460;11.810;2022-10-22T13:37:36;9.40;;;3.40;;
42134;SDS011;28312;43.460;11.810;2022-10-22T13:41:41;4.67;;;3.13;;
42134;SDS011;28312;43.460;11.810;2022-10-22T13:45:45;8.93;;;3.05;;
42134;SDS011;28312;43.460;11.810;2022-10-22T13:49:51;8.73;;;2.83;;
42134;SDS011;28312;43.460;11.810;2022-10-22T13:54:00;7.40;;;3.70;;
42134;SDS011;28312;43.460;11.810;2022-10-22T13:58:08;20.40;;;5.30;;
42134;SDS011;28312;43.460;11.810;2022-10-22T14:02:14;9.13;;;3.97;;
42134;SDS011;28312;43.460;11.810;2022-10-22T14:06:18;8.27;;;4.13;;
42134;SDS011;28312;43.460;11.810;2022-10-22T14:10:24;8.25;;;4.50;;
42134;SDS011;28312;43.460;11.810;2022-10-22T14:14:28;8.18;;;4.93;;
42134;SDS011;28312;43.460;11.810;2022-10-22T14:18:31;7.15;;;3.63;;
42134;SDS011;28312;43.460;11.810;2022-10-22T14:22:35;8.27;;;3.30;;
42134;SDS011;28312;43.460;11.810;2022-10-22T14:26:39;8.90;;;3.88;;
42134;SDS011;28312;43.460;11.810;2022-10-22T14:30:42;6.40;;;3.63;;
42134;SDS011;28312;43.460;11.810;2022-10-22T14:34:47;6.40;;;4.22;;
42134;SDS011;28312;43.460;11.810;2022-10-22T14:38:51;8.63;;;4.10;;
42134;SDS011;28312;43.460;11.810;2022-10-22T14:42:54;7.75;;;3.80;;
42134;SDS011;28312;43.460;11.810;2022-10-22T14:46:58;11.48;;;4.47;;
42134;SDS011;28312;43.460;11.810;2022-10-22T14:51:02;11.10;;;4.18;;
42134;SDS011;28312;43.460;11.810;2022-10-22T14:55:07;9.73;;;5.88;;
42134;SDS011;28312;43.460;11.810;2022-10-22T14:59:12;10.43;;;5.78;;
42134;SDS011;28312;43.460;11.810;2022-10-22T15:03:15;9.75;;;4.72;;
42134;SDS011;28312;43.460;11.810;2022-10-22T15:07:19;13.23;;;5.28;;
42134;SDS011;28312;43.460;11.810;2022-10-22T15:11:23;7.93;;;5.53;;
42134;SDS011;28312;43.460;11.810;2022-10-22T15:15:26;10.40;;;4.78;;
42134;SDS011;28312;43.460;11.810;2022-10-22T15:19:40;11.93;;;4.93;;
42134;SDS011;28312;43.460;11.810;2022-10-22T15:23:46;8.18;;;4.88;;
42134;SDS011;28312;43.460;11.810;2022-10-22T15:27:56;11.43;;;4.32;;
42134;SDS011;28312;43.460;11.810;2022-10-22T15:32:10;7.35;;;4.45;;
42134;SDS011;28312;43.460;11.810;2022-10-22T15:36:14;9.65;;;3.92;;
42134;SDS011;28312;43.460;11.810;2022-10-22T15:40:18;10.23;;;4.78;;
42134;SDS011;28312;43.460;11.810;2022-10-22T15:44:23;13.57;;;6.50;;
42134;SDS011;28312;43.460;11.810;2022-10-22T15:48:33;11.05;;;4.07;;
42134;SDS011;28312;43.460;11.810;2022-10-22T15:52:40;12.85;;;4.20;;
42134;SDS011;28312;43.460;11.810;2022-10-22T15:56:43;11.32;;;4.80;;
42134;SDS011;28312;43.460;11.810;2022-10-22T16:00:47;7.82;;;4.57;;
42134;SDS011;28312;43.460;11.810;2022-10-22T16:04:52;10.75;;;4.22;;
42134;SDS011;28312;43.460;11.810;2022-10-22T16:08:56;8.88;;;5.43;;
42134;SDS011;28312;43.460;11.810;2022-10-22T16:13:01;10.13;;;6.55;;
42134;SDS011;28312;43.460;11.810;2022-10-22T16:17:04;8.50;;;4.88;;
42134;SDS011;28312;43.460;11.810;2022-10-22T16:21:10;10.23;;;4.63;;
42134;SDS011;28312;43.460;11.810;2022-10-22T16:25:16;8.07;;;4.28;;
42134;SDS011;28312;43.460;11.810;2022-10-22T16:29:19;6.32;;;3.47;;
42134;SDS011;28312;43.460;11.810;2022-10-22T16:33:22;7.68;;;3.42;;
42134;SDS011;28312;43.460;11.810;2022-10-22T16:37:26;4.65;;;2.75;;
42134;SDS011;28312;43.460;11.810;2022-10-22T16:41:30;5.55;;;2.95;;
42134;SDS011;28312;43.460;11.810;2022-10-22T16:45:45;6.47;;;3.15;;
42134;SDS011;28312;43.460;11.810;2022-10-22T16:49:50;7.32;;;3.25;;
42134;SDS011;28312;43.460;11.810;2022-10-22T16:53:55;5.28;;;2.33;;
42134;SDS011;28312;43.460;11.810;2022-10-22T16:57:59;4.68;;;2.80;;
42134;SDS011;28312;43.460;11.810;2022-10-22T17:02:10;7.90;;;3.28;;
42134;SDS011;28312;43.460;11.810;2022-10-22T17:06:15;3.53;;;2.50;;
42134;SDS011;28312;43.460;11.810;2022-10-22T17:10:21;6.45;;;2.92;;
42134;SDS011;28312;43.460;11.810;2022-10-22T17:14:24;4.00;;;2.53;;
42134;SDS011;28312;43.460;11.810;2022-10-22T17:18:28;3.72;;;2.33;;
42134;SDS011;28312;43.460;11.810;2022-10-22T17:22:32;3.38;;;2.28;;
42134;SDS011;28312;43.460;11.810;2022-10-22T17:26:35;3.20;;;1.65;;
42134;SDS011;28312;43.460;11.810;2022-10-22T17:30:39;4.95;;;2.20;;
42134;SDS011;28312;43.460;11.810;2022-10-22T17:34:43;4.63;;;2.05;;
42134;SDS011;28312;43.460;11.810;2022-10-22T17:38:48;3.40;;;1.77;;
42134;SDS011;28312;43.460;11.810;2022-10-22T17:42:52;4.72;;;2.72;;
42134;SDS011;28312;43.460;11.810;2022-10-22T17:46:56;3.33;;;1.88;;
42134;SDS011;28312;43.460;11.810;2022-10-22T17:51:06;3.17;;;2.13;;
42134;SDS011;28312;43.460;11.810;2022-10-22T17:55:12;9.00;;;3.67;;
42134;SDS011;28312;43.460;11.810;2022-10-22T17:59:15;5.90;;;2.95;;
42134;SDS011;28312;43.460;11.810;2022-10-22T18:03:19;3.15;;;1.60;;
42134;SDS011;28312;43.460;11.810;2022-10-22T18:07:22;3.35;;;2.00;;
42134;SDS011;28312;43.460;11.810;2022-10-22T18:11:26;2.63;;;1.58;;
42134;SDS011;28312;43.460;11.810;2022-10-22T18:15:30;3.47;;;2.17;;
42134;SDS011;28312;43.460;11.810;2022-10-22T18:19:35;3.92;;;2.67;;
42134;SDS011;28312;43.460;11.810;2022-10-22T18:23:38;4.95;;;2.33;;
42134;SDS011;28312;43.460;11.810;2022-10-22T18:27:42;3.78;;;2.25;;
42134;SDS011;28312;43.460;11.810;2022-10-22T18:31:47;4.50;;;2.50;;
42134;SDS011;28312;43.460;11.810;2022-10-22T18:35:51;2.67;;;1.90;;
42134;SDS011;28312;43.460;11.810;2022-10-22T18:39:54;4.63;;;2.78;;
42134;SDS011;28312;43.460;11.810;2022-10-22T18:44:02;5.28;;;3.05;;
42134;SDS011;28312;43.460;11.810;2022-10-22T18:48:09;3.22;;;2.08;;
42134;SDS011;28312;43.460;11.810;2022-10-22T18:52:14;5.75;;;3.20;;
42134;SDS011;28312;43.460;11.810;2022-10-22T18:56:18;4.15;;;3.30;;
42134;SDS011;28312;43.460;11.810;2022-10-22T19:00:22;4.20;;;3.00;;
42134;SDS011;28312;43.460;11.810;2022-10-22T19:04:29;5.20;;;3.45;;
42134;SDS011;28312;43.460;11.810;2022-10-22T19:08:35;3.78;;;2.17;;
42134;SDS011;28312;43.460;11.810;2022-10-22T19:12:38;4.07;;;2.15;;
42134;SDS011;28312;43.460;11.810;2022-10-22T19:16:42;4.18;;;2.00;;
42134;SDS011;28312;43.460;11.810;2022-10-22T19:20:46;3.38;;;2.38;;
42134;SDS011;28312;43.460;11.810;2022-10-22T19:24:51;4.60;;;2.87;;
42134;SDS011;28312;43.460;11.810;2022-10-22T19:28:55;2.85;;;1.65;;
42134;SDS011;28312;43.460;11.810;2022-10-22T19:33:00;4.15;;;1.60;;
42134;SDS011;28312;43.460;11.810;2022-10-22T19:37:03;2.75;;;1.75;;
42134;SDS011;28312;43.460;11.810;2022-10-22T19:41:09;2.30;;;1.25;;
42134;SDS011;28312;43.460;11.810;2022-10-22T19:45:17;3.35;;;1.73;;
42134;SDS011;28312;43.460;11.810;2022-10-22T19:49:20;3.47;;;2.45;;
42134;SDS011;28312;43.460;11.810;2022-10-22T19:53:25;3.75;;;2.05;;
42134;SDS011;28312;43.460;11.810;2022-10-22T19:57:29;3.22;;;1.88;;
42134;SDS011;28312;43.460;11.810;2022-10-22T20:01:32;3.28;;;1.80;;
42134;SDS011;28312;43.460;11.810;2022-10-22T20:05:37;3.70;;;1.70;;
42134;SDS011;28312;43.460;11.810;2022-10-22T20:09:40;2.88;;;1.90;;
42134;SDS011;28312;43.460;11.810;2022-10-22T20:13:44;3.05;;;1.45;;
42134;SDS011;28312;43.460;11.810;2022-10-22T20:17:54;2.70;;;1.70;;
42134;SDS011;28312;43.460;11.810;2022-10-22T20:21:58;2.40;;;1.50;;
42134;SDS011;28312;43.460;11.810;2022-10-22T20:26:03;3.05;;;1.40;;
42134;SDS011;28312;43.460;11.810;2022-10-22T20:30:08;2.25;;;1.38;;
42134;SDS011;28312;43.460;11.810;2022-10-22T20:34:12;5.40;;;1.58;;
42134;SDS011;28312;43.460;11.810;2022-10-22T20:38:19;3.45;;;1.40;;
42134;SDS011;28312;43.460;11.810;2022-10-22T20:42:23;2.55;;;1.45;;
42134;SDS011;28312;43.460;11.810;2022-10-22T20:46:28;2.42;;;1.42;;
42134;SDS011;28312;43.460;11.810;2022-10-22T20:50:35;2.47;;;1.20;;
42134;SDS011;28312;43.460;11.810;2022-10-22T20:54:38;3.20;;;1.52;;
42134;SDS011;28312;43.460;11.810;2022-10-22T20:58:45;2.60;;;1.40;;
42134;SDS011;28312;43.460;11.810;2022-10-22T21:02:51;2.70;;;1.60;;
42134;SDS011;28312;43.460;11.810;2022-10-22T21:06:55;3.40;;;1.08;;
42134;SDS011;28312;43.460;11.810;2022-10-22T21:10:59;2.42;;;1.50;;
42134;SDS011;28312;43.460;11.810;2022-10-22T21:15:03;2.67;;;1.67;;
42134;SDS011;28312;43.460;11.810;2022-10-22T21:19:11;2.47;;;1.85;;
42134;SDS011;28312;43.460;11.810;2022-10-22T21:23:14;2.80;;;1.35;;
42134;SDS011;28312;43.460;11.810;2022-10-22T21:27:18;5.38;;;1.98;;
42134;SDS011;28312;43.460;11.810;2022-10-22T21:31:22;2.33;;;1.50;;
42134;SDS011;28312;43.460;11.810;2022-10-22T21:35:27;3.50;;;2.08;;
42134;SDS011;28312;43.460;11.810;2022-10-22T21:39:31;4.00;;;1.25;;
42134;SDS011;28312;43.460;11.810;2022-10-22T21:43:43;2.58;;;1.50;;
42134;SDS011;28312;43.460;11.810;2022-10-22T21:47:47;2.88;;;1.90;;
42134;SDS011;28312;43.460;11.810;2022-10-22T21:51:51;3.28;;;1.42;;
42134;SDS011;28312;43.460;11.810;2022-10-22T21:55:54;3.28;;;1.50;;
42134;SDS011;28312;43.460;11.810;2022-10-22T21:59:58;3.03;;;1.77;;
42134;SDS011;28312;43.460;11.810;2022-10-22T22:04:01;2.60;;;1.58;;
42134;SDS011;28312;43.460;11.810;2022-10-22T22:08:06;2.60;;;1.40;;
42134;SDS011;28312;43.460;11.810;2022-10-22T22:12:09;2.10;;;1.20;;
42134;SDS011;28312;43.460;11.810;2022-10-22T22:16:14;3.20;;;1.70;;
42134;SDS011;28312;43.460;11.810;2022-10-22T22:20:25;3.03;;;1.80;;
42134;SDS011;28312;43.460;11.810;2022-10-22T22:24:29;2.00;;;1.30;;
42134;SDS011;28312;43.460;11.810;2022-10-22T22:28:33;2.38;;;1.67;;
42134;SDS011;28312;43.460;11.810;2022-10-22T22:32:36;3.28;;;1.60;;
42134;SDS011;28312;43.460;11.810;2022-10-22T22:36:41;4.45;;;1.65;;
42134;SDS011;28312;43.460;11.810;2022-10-22T22:40:48;2.50;;;1.52;;
42134;SDS011;28312;43.460;11.810;2022-10-22T22:44:52;2.80;;;1.65;;
42134;SDS011;28312;43.460;11.810;2022-10-22T22:48:55;2.40;;;1.42;;
42134;SDS011;28312;43.460;11.810;2022-10-22T22:52:58;2.67;;;1.60;;
42134;SDS011;28312;43.460;11.810;2022-10-22T22:57:02;2.65;;;1.55;;
42134;SDS011;28312;43.460;11.810;2022-10-22T23:01:08;2.20;;;1.38;;
42134;SDS011;28312;43.460;11.810;2022-10-22T23:05:13;1.88;;;1.05;;
42134;SDS011;28312;43.460;11.810;2022-10-22T23:09:17;2.17;;;1.55;;
42134;SDS011;28312;43.460;11.810;2022-10-22T23:13:26;3.15;;;1.60;;
42134;SDS011;28312;43.460;11.810;2022-10-22T23:17:30;2.92;;;1.77;;
42134;SDS011;28312;43.460;11.810;2022-10-22T23:21:34;2.03;;;1.40;;
42134;SDS011;28312;43.460;11.810;2022-10-22T23:25:40;2.33;;;1.50;;
42134;SDS011;28312;43.460;11.810;2022-10-22T23:29:46;2.13;;;1.33;;
42134;SDS011;28312;43.460;11.810;2022-10-22T23:33:50;4.57;;;1.98;;
42134;SDS011;28312;43.460;11.810;2022-10-22T23:37:54;4.43;;;2.20;;
42134;SDS011;28312;43.460;11.810;2022-10-22T23:41:59;7.10;;;3.30;;
42134;SDS011;28312;43.460;11.810;2022-10-22T23:46:06;3.13;;;1.90;;
42134;SDS011;28312;43.460;11.810;2022-10-22T23:50:12;3.42;;;2.30;;
42134;SDS011;28312;43.460;11.810;2022-10-22T23:54:15;3.78;;;1.77;;
42134;SDS011;28312;43.460;11.810;2022-10-22T23:58:20;3.25;;;2.00;;
